LIPR/RMI METAR and TAF weather

Enter ICAO airport designator
Station Type Date Time Source
LIPR METAR 2020/07/02 22:50 UTC NOAA

LIPR 022250Z AUTO 13004KT 9999 NCD 24/20 Q1008


Station Type Date Time Source
LIPR Decoded METAR 2020/07/02 22:50 UTC NOAA

Rimini, Italy (LIPR) 44-02N 012-37E 13M
Jul 02, 2020 - 06:50 PM EDT / 2020.07.02 2250 UTC
Wind: from the SE (130 degrees) at 5 MPH (4 KT):0
Visibility: greater than 7 mile(s):0
Temperature: 75 F (24 C)
Dew Point: 68 F (20 C)
Relative Humidity: 78%
Pressure (altimeter): 29.77 in. Hg (1008 hPa)
ob: LIPR 022250Z AUTO 13004KT 9999 NCD 24/20 Q1008
cycle: 23

Station Type Date Time Source
LIPR TAF 2016/08/23 03:00 UTC NOAA

TAF LIPR 230200Z 2303/2312 04007KT CAVOK
BECMG 2308/2310 02010KT

Example: see airport list